Keswick, Iowa
Current Conditions -  °F | °C
As of 9:35 AM on Friday 19 Dec 2014 (Local Time) from KOOA Reporting Station
Overcast Overcast  
Wind Chill: 19°   Ceiling: 4600
Heat Index: 28°   Visibility: 7mi
Dew Point: 24°   Wind: 8mph
Humidity: 88%   Direction: 140°SE
Pressure: 30.31"   Gusts: NA
Location:  41.45°N, 92.24°W
Report Text: KOOA 191535Z AUTO 14007KT 7SM OVC046 M02/M04 A3031 RMK AO2 T10251043
Loading
Personal Weather Stations






























Interactive Weather Map New forecast layout! Learn more

10-Day Weather Forecast

Advertisements
Track Severe Weather on mobile